Blackwara Airport


Codes: AYBW/
Name: Blackwara Airport
City:
Country: Papua New Guinea
Elevation: 58 ft.

Photos at Blackwara Airport


   Photos courtesy of SpottingLog. You can add your own sightings and photos by signing up for a free trial today.



No photos found.

Weather at Blackwara Airport


Time (UTC)DescriptionTempratureWindCloud coverageVisibilityPressureHumidity
19-Apr-2024 03:00Light Rain30°C9 mph, NE96%10000m1008hPa69%
19-Apr-2024 06:00Light Rain31°C9 mph, NE92%10000m1007hPa68%
19-Apr-2024 09:00Overcast Clouds29°C7 mph, E89%10000m1007hPa79%
19-Apr-2024 12:00Overcast Clouds28°C7 mph, E93%10000m1010hPa84%
19-Apr-2024 15:00Overcast Clouds27°C4 mph, E96%10000m1009hPa85%
19-Apr-2024 18:00Overcast Clouds27°C2 mph, SE97%10000m1009hPa85%
19-Apr-2024 21:00Overcast Clouds27°C4 mph, SE88%10000m1011hPa87%
20-Apr-2024 00:00Light Rain29°C2 mph, E86%10000m1011hPa74%
20-Apr-2024 03:00Light Rain30°C7 mph, NE24%10000m1008hPa73%
20-Apr-2024 06:00Light Rain30°C9 mph, NE62%10000m1007hPa73%
20-Apr-2024 09:00Light Rain28°C7 mph, E94%10000m1008hPa85%
20-Apr-2024 12:00Broken Clouds28°C7 mph, E69%10000m1010hPa85%
20-Apr-2024 15:00Overcast Clouds27°C7 mph, E95%10000m1010hPa85%
20-Apr-2024 18:00Overcast Clouds27°C4 mph, SE98%10000m1009hPa86%
20-Apr-2024 21:00Overcast Clouds27°C4 mph, SE86%10000m1010hPa87%
21-Apr-2024 00:00Overcast Clouds29°C2 mph, E87%10000m1010hPa76%
21-Apr-2024 03:00Light Rain29°C7 mph, NE62%10000m1008hPa76%
21-Apr-2024 06:00Light Rain30°C9 mph, NE66%10000m1006hPa77%
21-Apr-2024 09:00Light Rain28°C9 mph, E96%10000m1008hPa83%
21-Apr-2024 12:00Overcast Clouds28°C9 mph, E94%10000m1010hPa86%
21-Apr-2024 15:00Scattered Clouds28°C9 mph, E38%10000m1009hPa83%
21-Apr-2024 18:00Broken Clouds27°C7 mph, E61%10000m1009hPa83%
21-Apr-2024 21:00Broken Clouds27°C7 mph, SE78%10000m1010hPa84%
22-Apr-2024 00:00Broken Clouds29°C7 mph, E77%10000m1010hPa69%
22-Apr-2024 03:00Scattered Clouds31°C11 mph, NE26%10000m1008hPa65%
22-Apr-2024 06:00Few Clouds31°C11 mph, E15%10000m1005hPa65%
22-Apr-2024 09:00Scattered Clouds28°C11 mph, E44%10000m1007hPa79%
22-Apr-2024 12:00Broken Clouds27°C9 mph, E67%10000m1009hPa78%
22-Apr-2024 15:00Overcast Clouds27°C9 mph, SE89%10000m1008hPa82%
22-Apr-2024 18:00Overcast Clouds27°C7 mph, SE90%10000m1008hPa87%
22-Apr-2024 21:00Overcast Clouds26°C7 mph, SE91%10000m1009hPa89%
23-Apr-2024 00:00Overcast Clouds30°C7 mph, SE92%10000m1010hPa70%
23-Apr-2024 03:00Overcast Clouds31°C11 mph, E94%10000m1007hPa63%
23-Apr-2024 06:00Broken Clouds31°C13 mph, E61%10000m1005hPa66%
23-Apr-2024 09:00Broken Clouds28°C11 mph, E84%10000m1008hPa81%
23-Apr-2024 12:00Overcast Clouds28°C9 mph, E91%10000m1010hPa84%
23-Apr-2024 15:00Light Rain27°C7 mph, E99%10000m1009hPa87%
23-Apr-2024 18:00Light Rain27°C7 mph, SE98%10000m1008hPa87%
23-Apr-2024 21:00Light Rain27°C7 mph, SE100%10000m1010hPa86%
24-Apr-2024 00:00Overcast Clouds30°C4 mph, SE92%10000m1010hPa67%